createdAt,value
2017-04-19T00:00:05.328Z,76.09
2017-04-19T00:00:27.020Z,76.04
2017-04-19T00:01:29.627Z,75.83
2017-04-19T00:01:51.334Z,75.81
2017-04-19T00:02:53.913Z,76.29
2017-04-19T00:03:15.618Z,76.22
2017-04-19T00:04:19.270Z,76.19
2017-04-19T00:05:21.765Z,75.66
2017-04-19T00:05:43.535Z,75.59
2017-04-19T00:06:46.135Z,75.29
2017-04-19T00:07:44.484Z,75.73
2017-04-19T00:08:15.754Z,76.06
2017-04-19T00:08:37.564Z,76.33
2017-04-19T00:09:08.828Z,76.50
2017-04-19T00:09:30.650Z,76.61
2017-04-19T00:10:01.912Z,76.45
2017-04-19T00:10:23.622Z,76.24
2017-04-19T00:10:54.897Z,75.64
2017-04-19T00:11:16.615Z,75.26
2017-04-19T00:11:43.089Z,74.80
2017-04-19T00:12:04.810Z,74.59
2017-04-19T00:12:31.297Z,74.61
2017-04-19T00:12:53.082Z,74.35
2017-04-19T00:13:14.802Z,74.13
2017-04-19T00:13:41.300Z,73.82
2017-04-19T00:14:03.142Z,73.53
2017-04-19T00:14:24.842Z,73.50
2017-04-19T00:14:56.089Z,73.84
2017-04-19T00:15:17.829Z,74.26
2017-04-19T00:15:39.621Z,74.55
2017-04-19T00:16:10.878Z,74.76
2017-04-19T00:16:32.682Z,75.06
2017-04-19T00:17:39.991Z,75.94
2017-04-19T00:18:01.805Z,76.13
2017-04-19T00:18:23.509Z,76.15
2017-04-19T00:18:45.226Z,76.22
2017-04-19T00:19:06.968Z,76.08
2017-04-19T00:19:28.690Z,75.95
2017-04-19T00:19:55.282Z,76.01
2017-04-19T00:20:16.993Z,76.08
2017-04-19T00:20:43.481Z,75.82
2017-04-19T00:21:05.270Z,75.34
2017-04-19T00:21:31.769Z,74.70
2017-04-19T00:21:53.506Z,74.37
2017-04-19T00:22:20.150Z,74.04
2017-04-19T00:22:41.865Z,73.73
2017-04-19T00:23:08.347Z,73.59
2017-04-19T00:23:30.158Z,73.48
2017-04-19T00:23:56.669Z,73.61
2017-04-19T00:24:18.391Z,74.22
2017-04-19T00:24:44.875Z,74.83
2017-04-19T00:25:06.680Z,75.10
2017-04-19T00:25:28.384Z,75.40
2017-04-19T00:26:26.729Z,75.41
2017-04-19T00:26:48.453Z,75.63
2017-04-19T00:27:46.821Z,75.16
2017-04-19T00:28:49.325Z,74.42
2017-04-19T00:29:51.910Z,74.71
2017-04-19T00:30:23.182Z,75.22
2017-04-19T00:30:44.900Z,75.78
2017-04-19T00:31:11.388Z,75.16
2017-04-19T00:31:33.182Z,74.68
2017-04-19T00:31:54.903Z,74.64
2017-04-19T00:32:21.391Z,74.33
2017-04-19T00:32:43.183Z,74.31
2017-04-19T00:33:41.625Z,74.58
2017-04-19T00:34:39.903Z,75.10
2017-04-19T00:35:47.270Z,74.24
2017-04-19T00:36:09.010Z,73.76
2017-04-19T00:37:07.445Z,73.01
2017-04-19T00:37:33.948Z,73.02
2017-04-19T00:38:32.376Z,73.10
2017-04-19T00:38:58.853Z,73.50
2017-04-19T00:40:01.460Z,72.93
2017-04-19T00:40:27.944Z,72.87
2017-04-19T00:41:35.308Z,73.79
2017-04-19T00:41:57.021Z,73.71
2017-04-19T00:42:59.621Z,73.50
2017-04-19T00:43:57.879Z,74.16
2017-04-19T00:44:19.589Z,74.08
2017-04-19T00:45:22.183Z,73.55
2017-04-19T00:45:48.659Z,73.06
2017-04-19T00:46:10.486Z,72.81
2017-04-19T00:46:32.222Z,72.69
2017-04-19T00:47:03.464Z,72.48
2017-04-19T00:47:25.262Z,72.11
2017-04-19T00:47:51.836Z,72.18
2017-04-19T00:48:13.567Z,72.02
2017-04-19T00:48:35.427Z,72.52
2017-04-19T00:49:02.018Z,72.94
2017-04-19T00:49:23.848Z,72.79
2017-04-19T00:49:45.657Z,73.33
2017-04-19T00:50:12.137Z,73.49
2017-04-19T00:50:33.916Z,73.33
2017-04-19T00:51:05.177Z,73.26
2017-04-19T00:51:26.892Z,73.48
2017-04-19T00:51:58.142Z,73.27
2017-04-19T00:52:19.842Z,72.96
2017-04-19T00:52:51.194Z,73.03
2017-04-19T00:53:13.009Z,72.75
2017-04-19T00:54:10.644Z,72.37
2017-04-19T00:54:32.437Z,72.39
2017-04-19T00:54:54.195Z,72.35
2017-04-19T00:55:15.939Z,72.08
2017-04-19T00:55:37.719Z,72.09
2017-04-19T00:55:59.475Z,72.31
2017-04-19T00:56:21.224Z,72.29
2017-04-19T00:56:43.004Z,72.72
2017-04-19T00:57:04.759Z,73.27
2017-04-19T00:57:26.508Z,73.44
2017-04-19T00:57:48.262Z,73.26
2017-04-19T00:58:10.075Z,72.85
2017-04-19T00:58:31.798Z,72.90
2017-04-19T00:58:53.540Z,72.58
2017-04-19T00:59:15.405Z,72.69
2017-04-19T00:59:37.195Z,72.52
2017-04-19T00:59:59.069Z,72.46
2017-04-19T01:00:20.835Z,73.28
2017-04-19T01:00:42.642Z,73.29
2017-04-19T01:01:04.394Z,73.18
2017-04-19T01:02:06.939Z,72.15
2017-04-19T01:02:28.703Z,71.63
2017-04-19T01:02:50.507Z,71.69
2017-04-19T01:03:12.255Z,71.82
2017-04-19T01:03:33.990Z,72.19
2017-04-19T01:03:55.760Z,72.06
2017-04-19T01:04:22.298Z,71.76
2017-04-19T01:04:44.099Z,72.00
2017-04-19T01:05:10.646Z,72.19
2017-04-19T01:05:32.356Z,72.95
2017-04-19T01:06:30.652Z,73.66
2017-04-19T01:06:52.398Z,73.48
2017-04-19T01:07:14.179Z,73.35
2017-04-19T01:07:35.910Z,73.04
2017-04-19T01:07:57.657Z,72.71
2017-04-19T01:08:19.405Z,72.83
2017-04-19T01:08:41.190Z,73.25
2017-04-19T01:09:02.934Z,73.62
2017-04-19T01:09:24.681Z,73.42
2017-04-19T01:09:46.433Z,73.23
2017-04-19T01:10:08.209Z,72.92
2017-04-19T01:10:29.930Z,72.86
2017-04-19T01:10:51.701Z,72.38
2017-04-19T01:11:13.438Z,72.42
2017-04-19T01:11:35.183Z,72.20
2017-04-19T01:11:56.945Z,71.82
2017-04-19T01:12:18.683Z,71.75
2017-04-19T01:12:40.432Z,72.02
2017-04-19T01:13:02.203Z,71.81
2017-04-19T01:13:23.992Z,71.96
2017-04-19T01:14:26.527Z,71.75
2017-04-19T01:14:48.284Z,71.77
2017-04-19T01:15:10.103Z,71.78
2017-04-19T01:15:31.842Z,72.19
2017-04-19T01:15:53.618Z,72.15
2017-04-19T01:16:15.432Z,71.96
2017-04-19T01:16:37.179Z,71.99
2017-04-19T01:16:58.971Z,71.79
2017-04-19T01:17:20.712Z,71.87
2017-04-19T01:17:42.432Z,72.07
2017-04-19T01:18:04.130Z,72.83
2017-04-19T01:18:25.876Z,72.72
2017-04-19T01:18:47.824Z,72.50
2017-04-19T01:19:46.182Z,72.07
2017-04-19T01:20:07.942Z,72.00
2017-04-19T01:20:29.695Z,71.94
2017-04-19T01:20:51.465Z,71.81
2017-04-19T01:21:13.207Z,72.14
2017-04-19T01:21:34.961Z,71.96
2017-04-19T01:21:56.715Z,71.66
2017-04-19T01:22:18.579Z,71.46
2017-04-19T01:22:40.287Z,71.34
2017-04-19T01:23:02.074Z,71.73
2017-04-19T01:23:23.785Z,71.80
2017-04-19T01:23:45.548Z,71.80
2017-04-19T01:24:07.247Z,72.30
2017-04-19T01:24:28.995Z,72.36
2017-04-19T01:24:50.760Z,72.37
2017-04-19T01:25:12.525Z,72.61
2017-04-19T01:25:34.323Z,72.73
2017-04-19T01:25:56.079Z,72.81
2017-04-19T01:26:17.925Z,73.04
2017-04-19T01:26:39.681Z,73.47
2017-04-19T01:27:01.431Z,73.36
2017-04-19T01:27:23.215Z,73.37
2017-04-19T01:27:44.962Z,73.28
2017-04-19T01:28:06.705Z,72.83
2017-04-19T01:28:28.529Z,72.36
2017-04-19T01:28:50.367Z,72.22
2017-04-19T01:29:12.122Z,72.04
2017-04-19T01:29:33.918Z,71.86
2017-04-19T01:29:55.682Z,71.95
2017-04-19T01:30:17.449Z,71.70
2017-04-19T01:30:39.217Z,72.32
2017-04-19T01:31:01.034Z,72.96
2017-04-19T01:31:22.756Z,73.07
2017-04-19T01:31:44.548Z,72.98
2017-04-19T01:32:06.259Z,72.67
2017-04-19T01:32:27.993Z,72.40
2017-04-19T01:32:49.732Z,72.38
2017-04-19T01:33:11.695Z,72.52
2017-04-19T01:33:33.463Z,72.27
2017-04-19T01:33:55.201Z,72.17
2017-04-19T01:34:16.930Z,72.11
2017-04-19T01:34:38.685Z,71.99
2017-04-19T01:35:00.447Z,71.89
2017-04-19T01:35:22.186Z,71.89
2017-04-19T01:35:43.950Z,72.18
2017-04-19T01:36:05.695Z,72.14
2017-04-19T01:36:27.438Z,71.88
2017-04-19T01:36:49.218Z,71.98
2017-04-19T01:37:10.959Z,71.78
2017-04-19T01:37:32.718Z,71.53
2017-04-19T01:37:54.483Z,71.44
2017-04-19T01:38:16.233Z,71.55
2017-04-19T01:38:37.982Z,71.25
2017-04-19T01:38:59.744Z,71.07
2017-04-19T01:39:21.471Z,70.95
2017-04-19T01:40:23.975Z,71.20
2017-04-19T01:40:45.772Z,71.61
2017-04-19T01:41:07.558Z,72.08
2017-04-19T01:41:29.369Z,72.14
2017-04-19T01:41:51.107Z,72.52
2017-04-19T01:42:12.858Z,72.25
2017-04-19T01:42:34.564Z,72.08
2017-04-19T01:42:56.319Z,72.36
2017-04-19T01:43:18.074Z,72.42
2017-04-19T01:43:39.845Z,72.66
2017-04-19T01:44:01.571Z,73.09
2017-04-19T01:44:23.330Z,73.29
2017-04-19T01:44:45.043Z,73.43
2017-04-19T01:45:06.733Z,73.47
2017-04-19T01:45:28.504Z,73.60
2017-04-19T01:45:50.290Z,73.38
2017-04-19T01:46:12.240Z,73.38
2017-04-19T01:46:34.227Z,73.27
2017-04-19T01:46:55.970Z,73.13
2017-04-19T01:47:17.737Z,72.96
2017-04-19T01:47:39.541Z,72.48
2017-04-19T01:48:01.317Z,72.23
2017-04-19T01:48:23.048Z,71.83
2017-04-19T01:48:44.807Z,71.88
2017-04-19T01:49:06.702Z,71.94
2017-04-19T01:49:28.456Z,72.14
2017-04-19T01:49:50.241Z,72.30
2017-04-19T01:50:12.022Z,72.18
2017-04-19T01:50:33.766Z,72.25
2017-04-19T01:50:55.555Z,72.26
2017-04-19T01:51:17.327Z,72.17
2017-04-19T01:51:39.058Z,72.27
2017-04-19T01:52:00.930Z,71.99
2017-04-19T01:52:22.771Z,72.64
2017-04-19T01:52:44.532Z,72.78
2017-04-19T01:53:06.271Z,73.06
2017-04-19T01:53:28.050Z,73.10
2017-04-19T01:53:49.797Z,73.08
2017-04-19T01:54:11.611Z,73.27
2017-04-19T01:54:33.347Z,72.95
2017-04-19T01:54:55.105Z,72.49
2017-04-19T01:55:16.863Z,72.29
2017-04-19T01:55:38.644Z,72.95
2017-04-19T01:56:00.473Z,72.65
2017-04-19T01:56:22.233Z,72.56
2017-04-19T01:56:43.991Z,72.98
2017-04-19T01:57:05.713Z,73.11
2017-04-19T01:57:27.408Z,73.06
2017-04-19T01:57:49.224Z,73.22
2017-04-19T01:58:10.919Z,73.03
2017-04-19T01:58:32.813Z,73.09
2017-04-19T01:58:54.511Z,72.99
2017-04-19T01:59:16.290Z,72.87
2017-04-19T01:59:38.065Z,72.53
2017-04-19T01:59:59.855Z,72.67
2017-04-19T02:00:21.584Z,72.59
2017-04-19T02:00:43.391Z,72.49
2017-04-19T02:01:05.168Z,72.39
2017-04-19T02:01:26.995Z,72.12
2017-04-19T02:01:48.743Z,71.97
2017-04-19T02:02:10.593Z,71.68
2017-04-19T02:02:32.367Z,71.45
2017-04-19T02:02:54.174Z,71.46
2017-04-19T02:03:15.931Z,71.67
2017-04-19T02:03:37.778Z,71.65
2017-04-19T02:03:59.537Z,71.80
2017-04-19T02:04:21.281Z,71.59
2017-04-19T02:04:43.039Z,71.66
2017-04-19T02:05:04.988Z,71.78
2017-04-19T02:05:26.732Z,71.39
2017-04-19T02:05:48.450Z,71.04
2017-04-19T02:06:10.368Z,71.30
2017-04-19T02:06:32.210Z,71.05
2017-04-19T02:06:53.930Z,71.34
2017-04-19T02:07:15.724Z,71.79
2017-04-19T02:07:37.448Z,71.84
2017-04-19T02:07:59.243Z,71.38
2017-04-19T02:08:57.648Z,71.13
2017-04-19T02:09:28.903Z,71.46
2017-04-19T02:09:50.685Z,71.60
2017-04-19T02:10:21.956Z,71.64
2017-04-19T02:10:43.689Z,71.84
2017-04-19T02:11:05.439Z,71.48
2017-04-19T02:12:03.777Z,71.40
2017-04-19T02:12:25.557Z,71.00
2017-04-19T02:12:52.040Z,70.74
2017-04-19T02:13:13.738Z,70.81
2017-04-19T02:14:12.177Z,71.07
2017-04-19T02:14:34.125Z,71.09
2017-04-19T02:15:00.693Z,71.02
2017-04-19T02:15:22.589Z,70.98
2017-04-19T02:15:44.296Z,71.82
2017-04-19T02:16:06.024Z,71.70
2017-04-19T02:16:27.800Z,71.48
2017-04-19T02:16:54.268Z,71.26
2017-04-19T02:17:15.966Z,71.00
2017-04-19T02:17:37.802Z,70.68
2017-04-19T02:17:59.509Z,70.43
2017-04-19T02:18:21.211Z,70.38
2017-04-19T02:18:42.923Z,70.75
2017-04-19T02:19:04.719Z,71.14
2017-04-19T02:19:26.415Z,71.42
2017-04-19T02:19:48.125Z,72.09
2017-04-19T02:20:09.861Z,72.02
2017-04-19T02:20:36.348Z,71.84
2017-04-19T02:20:58.135Z,71.61
2017-04-19T02:21:20.036Z,71.76
2017-04-19T02:21:41.744Z,71.49
2017-04-19T02:22:03.576Z,71.67
2017-04-19T02:22:25.283Z,71.99
2017-04-19T02:22:51.752Z,72.27
2017-04-19T02:23:13.549Z,72.45
2017-04-19T02:23:35.272Z,72.34
2017-04-19T02:24:06.546Z,72.08
2017-04-19T02:24:28.363Z,71.81
2017-04-19T02:24:54.852Z,71.15
2017-04-19T02:25:16.555Z,70.96
2017-04-19T02:26:19.170Z,71.18
2017-04-19T02:26:40.870Z,71.16
2017-04-19T02:27:39.290Z,71.56
2017-04-19T02:28:05.790Z,71.95
2017-04-19T02:28:27.503Z,72.14
2017-04-19T02:28:49.230Z,72.29
2017-04-19T02:29:20.485Z,72.11
2017-04-19T02:29:42.274Z,71.67
2017-04-19T02:30:08.752Z,71.60
2017-04-19T02:30:30.453Z,71.73
2017-04-19T02:31:01.714Z,71.12
2017-04-19T02:31:23.497Z,70.92
2017-04-19T02:32:21.904Z,70.99
2017-04-19T02:32:48.413Z,70.78
2017-04-19T02:33:10.224Z,70.94
2017-04-19T02:33:32.014Z,71.55
2017-04-19T02:33:53.712Z,72.04
2017-04-19T02:34:52.120Z,73.04
2017-04-19T02:35:59.404Z,72.78
2017-04-19T02:36:21.193Z,73.05
2017-04-19T02:36:42.891Z,73.00
2017-04-19T02:37:09.370Z,72.58
2017-04-19T02:37:31.165Z,72.12
2017-04-19T02:37:52.895Z,71.86
2017-04-19T02:38:19.373Z,71.75
2017-04-19T02:38:41.104Z,72.18
2017-04-19T02:39:07.696Z,72.53
2017-04-19T02:39:29.414Z,72.52
2017-04-19T02:39:55.906Z,72.65
2017-04-19T02:40:17.601Z,72.91
2017-04-19T02:40:44.089Z,73.24
2017-04-19T02:41:05.874Z,73.36
2017-04-19T02:41:27.574Z,73.45
2017-04-19T02:42:25.972Z,73.74
2017-04-19T02:42:47.685Z,73.52
2017-04-19T02:43:50.193Z,72.57
2017-04-19T02:44:11.887Z,72.21
2017-04-19T02:44:43.151Z,72.01
2017-04-19T02:45:04.942Z,71.95
2017-04-19T02:45:31.421Z,71.89
2017-04-19T02:45:53.136Z,71.64
2017-04-19T02:46:55.724Z,71.79
2017-04-19T02:47:17.433Z,71.81
2017-04-19T02:47:48.688Z,71.73
2017-04-19T02:48:10.514Z,72.06
2017-04-19T02:48:41.769Z,72.84
2017-04-19T02:49:03.505Z,72.90
2017-04-19T02:50:01.799Z,72.89
2017-04-19T02:50:23.499Z,72.45
2017-04-19T02:51:26.081Z,71.60
2017-04-19T02:51:52.565Z,71.32
2017-04-19T02:52:55.191Z,71.13
2017-04-19T02:53:16.918Z,71.10
2017-04-19T02:53:48.171Z,71.22
2017-04-19T02:54:09.962Z,71.27
2017-04-19T02:54:31.676Z,70.96
2017-04-19T02:54:58.164Z,71.47
2017-04-19T02:55:19.978Z,71.59
2017-04-19T02:55:41.676Z,71.56
2017-04-19T02:56:08.149Z,71.53
2017-04-19T02:56:29.845Z,71.61
2017-04-19T02:56:51.625Z,71.46
2017-04-19T02:57:18.104Z,71.42
2017-04-19T02:57:39.815Z,71.23
2017-04-19T02:58:01.747Z,70.99
2017-04-19T02:58:28.319Z,71.43
2017-04-19T02:58:50.021Z,71.61
2017-04-19T02:59:11.736Z,71.51
2017-04-19T03:00:10.223Z,72.21
2017-04-19T03:00:41.478Z,72.14
2017-04-19T03:01:03.198Z,72.19
2017-04-19T03:01:24.912Z,72.25
2017-04-19T03:01:51.406Z,72.18
2017-04-19T03:02:13.100Z,72.52
2017-04-19T03:02:39.592Z,72.66
2017-04-19T03:03:01.284Z,72.52
2017-04-19T03:03:59.705Z,72.87
2017-04-19T03:04:21.408Z,72.62
2017-04-19T03:04:47.884Z,72.38
2017-04-19T03:05:09.615Z,72.09
2017-04-19T03:05:36.109Z,71.68
2017-04-19T03:05:57.952Z,71.96
2017-04-19T03:06:29.201Z,72.18
2017-04-19T03:06:51.009Z,72.34
2017-04-19T03:07:17.478Z,72.90
2017-04-19T03:07:39.187Z,72.94
2017-04-19T03:08:00.896Z,72.99
2017-04-19T03:08:22.698Z,72.90
2017-04-19T03:08:44.432Z,72.94
2017-04-19T03:09:06.146Z,73.14
2017-04-19T03:09:32.625Z,73.08
2017-04-19T03:09:54.405Z,72.84
2017-04-19T03:10:57.024Z,72.42
2017-04-19T03:11:23.504Z,72.27
2017-04-19T03:11:54.763Z,73.03
2017-04-19T03:12:16.473Z,73.19
2017-04-19T03:12:42.966Z,73.12
2017-04-19T03:13:04.673Z,73.43
2017-04-19T03:13:31.150Z,73.13
2017-04-19T03:13:52.973Z,73.00
2017-04-19T03:14:14.673Z,72.77
2017-04-19T03:14:45.919Z,72.96
2017-04-19T03:15:07.622Z,73.01
2017-04-19T03:15:34.102Z,73.02
2017-04-19T03:15:56.826Z,72.58
2017-04-19T03:16:23.310Z,72.74
2017-04-19T03:16:45.101Z,72.58
2017-04-19T03:17:16.411Z,71.93
2017-04-19T03:17:38.218Z,71.34
2017-04-19T03:18:07.595Z,71.32
2017-04-19T03:18:29.715Z,71.80
2017-04-19T03:18:54.201Z,71.94
2017-04-19T03:19:52.949Z,72.19
2017-04-19T03:20:14.673Z,71.97
2017-04-19T03:20:41.571Z,71.95
2017-04-19T03:21:03.299Z,72.40
2017-04-19T03:21:34.578Z,72.33
2017-04-19T03:21:56.563Z,72.45
2017-04-19T03:22:18.356Z,72.58
2017-04-19T03:22:40.113Z,72.43
2017-04-19T03:23:02.065Z,72.00
2017-04-19T03:23:23.999Z,71.79
2017-04-19T03:23:45.728Z,71.31
2017-04-19T03:24:07.519Z,70.83
2017-04-19T03:24:29.542Z,70.93
2017-04-19T03:24:51.366Z,70.97
2017-04-19T03:25:13.138Z,71.18
2017-04-19T03:25:35.060Z,71.60
2017-04-19T03:25:57.150Z,71.73
2017-04-19T03:26:19.045Z,71.52
2017-04-19T03:26:40.971Z,71.52
2017-04-19T03:27:02.817Z,71.89
2017-04-19T03:28:05.441Z,72.65
2017-04-19T03:28:27.251Z,72.23
2017-04-19T03:28:49.079Z,72.07
2017-04-19T03:29:10.905Z,71.80
2017-04-19T03:29:32.722Z,71.72
2017-04-19T03:29:59.346Z,71.91
2017-04-19T03:30:21.439Z,72.08
2017-04-19T03:30:43.279Z,72.14
2017-04-19T03:31:05.211Z,72.04
2017-04-19T03:31:30.073Z,72.12
2017-04-19T03:31:51.973Z,72.16
2017-04-19T03:32:13.738Z,72.02
2017-04-19T03:32:35.532Z,71.84
2017-04-19T03:32:57.342Z,71.46
2017-04-19T03:33:19.154Z,71.05
2017-04-19T03:33:43.472Z,70.79
2017-04-19T03:34:07.809Z,70.71
2017-04-19T03:34:36.676Z,71.54
2017-04-19T03:34:58.321Z,71.75
2017-04-19T03:35:25.005Z,71.69
2017-04-19T03:35:49.918Z,71.88
2017-04-19T03:36:16.679Z,72.23
2017-04-19T03:36:38.492Z,72.17
2017-04-19T03:37:36.835Z,72.30
2017-04-19T03:37:58.563Z,72.48
2017-04-19T03:38:20.411Z,72.33
2017-04-19T03:38:47.129Z,72.69
2017-04-19T03:39:08.919Z,72.68
2017-04-19T03:39:33.965Z,72.43
2017-04-19T03:39:55.904Z,72.37
2017-04-19T03:40:17.680Z,72.50
2017-04-19T03:40:39.675Z,72.49
2017-04-19T03:41:04.510Z,72.37
2017-04-19T03:41:26.267Z,72.56
2017-04-19T03:41:48.043Z,72.46
2017-04-19T03:42:10.144Z,72.17
2017-04-19T03:42:32.042Z,72.29
2017-04-19T03:42:53.751Z,72.50
2017-04-19T03:43:15.500Z,72.74
2017-04-19T03:43:37.805Z,72.81
2017-04-19T03:43:59.649Z,72.52
2017-04-19T03:44:21.609Z,72.34
2017-04-19T03:44:46.205Z,72.31
2017-04-19T03:45:08.062Z,71.87
2017-04-19T03:45:56.632Z,71.19
2017-04-19T03:46:18.604Z,71.43
2017-04-19T03:46:40.446Z,71.19
2017-04-19T03:47:02.258Z,71.12
2017-04-19T03:47:24.029Z,70.81
2017-04-19T03:47:45.899Z,70.83
2017-04-19T03:48:07.920Z,71.46
2017-04-19T03:48:29.686Z,71.44
2017-04-19T03:48:51.464Z,71.24
2017-04-19T03:49:13.932Z,71.86
2017-04-19T03:49:35.673Z,72.07
2017-04-19T03:49:57.425Z,72.17
2017-04-19T03:50:59.997Z,72.28
2017-04-19T03:51:21.786Z,72.18
2017-04-19T03:51:43.512Z,72.17
2017-04-19T03:52:05.496Z,72.33
2017-04-19T03:52:27.377Z,72.29
2017-04-19T03:52:49.115Z,72.17
2017-04-19T03:53:52.517Z,71.97
2017-04-19T03:54:55.406Z,72.13
2017-04-19T03:55:17.491Z,72.08
2017-04-19T03:55:39.360Z,72.04
2017-04-19T03:56:01.169Z,71.76
2017-04-19T03:56:22.997Z,71.80
2017-04-19T03:56:44.827Z,72.00
2017-04-19T03:57:06.510Z,72.06
2017-04-19T03:57:28.348Z,71.82
2017-04-19T03:57:50.114Z,72.05
2017-04-19T03:58:11.887Z,72.22
2017-04-19T03:58:34.003Z,72.62
2017-04-19T03:58:55.690Z,72.34
2017-04-19T03:59:17.652Z,72.16
2017-04-19T03:59:39.448Z,72.16
2017-04-19T04:00:02.134Z,71.87
2017-04-19T04:00:23.930Z,71.61
2017-04-19T04:00:45.865Z,71.77
2017-04-19T04:01:07.655Z,71.66
2017-04-19T04:01:29.718Z,71.94
2017-04-19T04:02:32.238Z,72.14
2017-04-19T04:02:53.931Z,72.12
2017-04-19T04:03:15.640Z,72.18
2017-04-19T04:03:37.719Z,72.69
2017-04-19T04:03:59.450Z,72.80
2017-04-19T04:04:21.348Z,72.74
2017-04-19T04:04:43.237Z,72.76
2017-04-19T04:05:45.971Z,73.11
2017-04-19T04:06:10.426Z,72.94
2017-04-19T04:06:32.253Z,72.89
2017-04-19T04:06:54.040Z,72.75
2017-04-19T04:07:16.241Z,72.41
2017-04-19T04:07:38.496Z,72.17
2017-04-19T04:08:00.448Z,72.51
2017-04-19T04:08:27.267Z,72.72
2017-04-19T04:09:23.717Z,73.02
2017-04-19T04:10:28.267Z,72.89
2017-04-19T04:10:57.433Z,72.77
2017-04-19T04:11:19.386Z,72.32
2017-04-19T04:11:41.420Z,72.27
2017-04-19T04:12:03.424Z,72.52
2017-04-19T04:12:25.192Z,72.88
2017-04-19T04:12:46.933Z,73.31
2017-04-19T04:13:08.969Z,73.39
2017-04-19T04:13:30.978Z,72.95
2017-04-19T04:13:52.721Z,72.71
2017-04-19T04:14:14.608Z,72.33
2017-04-19T04:14:36.548Z,71.91
2017-04-19T04:14:58.432Z,71.72
2017-04-19T04:15:20.431Z,71.57
2017-04-19T04:15:42.458Z,71.44
2017-04-19T04:16:04.295Z,71.73
2017-04-19T04:16:26.073Z,71.85
2017-04-19T04:16:47.894Z,71.65
2017-04-19T04:17:09.811Z,71.85
2017-04-19T04:17:31.774Z,71.50
2017-04-19T04:17:53.621Z,71.45
2017-04-19T04:18:16.561Z,70.85
2017-04-19T04:18:38.678Z,70.68
2017-04-19T04:19:00.592Z,70.52
2017-04-19T04:19:22.419Z,70.36
2017-04-19T04:19:44.164Z,70.28
2017-04-19T04:20:06.077Z,70.61
2017-04-19T04:20:28.041Z,70.50
2017-04-19T04:20:50.022Z,70.67
2017-04-19T04:21:12.112Z,70.83
2017-04-19T04:21:33.861Z,70.97
2017-04-19T04:21:55.687Z,70.84
2017-04-19T04:22:17.736Z,71.22
2017-04-19T04:22:39.577Z,71.33
2017-04-19T04:23:01.596Z,71.45
2017-04-19T04:23:23.357Z,71.12
2017-04-19T04:23:45.386Z,71.04
2017-04-19T04:24:07.165Z,70.77
2017-04-19T04:25:12.237Z,71.19
2017-04-19T04:26:14.872Z,70.68
2017-04-19T04:26:37.064Z,71.10
2017-04-19T04:26:59.121Z,71.17
2017-04-19T04:27:20.895Z,71.08
2017-04-19T04:27:42.623Z,70.84
2017-04-19T04:29:21.802Z,71.45
2017-04-19T04:29:43.616Z,71.83
2017-04-19T04:30:14.915Z,71.79
2017-04-19T04:30:36.624Z,71.90
2017-04-19T04:30:58.387Z,71.88
2017-04-19T04:31:20.112Z,71.97
2017-04-19T04:31:41.820Z,72.17
2017-04-19T04:32:03.560Z,72.40
2017-04-19T04:32:25.321Z,72.39
2017-04-19T04:32:47.013Z,72.26
2017-04-19T04:33:45.317Z,72.28
2017-04-19T04:34:07.040Z,72.17
2017-04-19T04:35:09.556Z,72.23
2017-04-19T04:35:31.272Z,72.15
2017-04-19T04:35:52.974Z,72.19
2017-04-19T04:36:14.688Z,72.08
2017-04-19T04:36:36.388Z,71.94
2017-04-19T04:36:58.086Z,71.54
2017-04-19T04:37:19.860Z,71.30
2017-04-19T04:37:46.339Z,71.13
2017-04-19T04:38:08.040Z,71.21
2017-04-19T04:38:29.732Z,71.23
2017-04-19T04:38:51.642Z,71.25
2017-04-19T04:39:13.337Z,71.25
2017-04-19T04:39:35.043Z,71.53
2017-04-19T04:39:56.738Z,71.79
2017-04-19T04:40:18.570Z,71.94
2017-04-19T04:40:45.055Z,72.09
2017-04-19T04:41:06.764Z,72.40
2017-04-19T04:41:28.460Z,72.25
2017-04-19T04:41:50.207Z,72.15
2017-04-19T04:42:11.940Z,71.95
2017-04-19T04:42:33.625Z,72.05
2017-04-19T04:43:05.005Z,72.06
2017-04-19T04:43:26.749Z,72.14
2017-04-19T04:43:48.464Z,71.65
2017-04-19T04:44:10.177Z,71.98
2017-04-19T04:44:31.934Z,71.89
2017-04-19T04:44:53.633Z,71.93
2017-04-19T04:45:15.337Z,72.14
2017-04-19T04:45:37.047Z,72.15
2017-04-19T04:45:58.809Z,72.54
2017-04-19T04:46:20.530Z,72.46
2017-04-19T04:46:42.227Z,72.28
2017-04-19T04:47:03.919Z,72.21
2017-04-19T04:47:25.636Z,72.20
2017-04-19T04:47:47.420Z,72.13
2017-04-19T04:48:09.141Z,72.42
2017-04-19T04:48:30.911Z,72.63
2017-04-19T04:48:57.385Z,72.66
2017-04-19T04:49:19.084Z,72.77
2017-04-19T04:50:21.611Z,72.29
2017-04-19T04:50:48.126Z,72.38
2017-04-19T04:51:14.599Z,72.86
2017-04-19T04:51:36.312Z,72.48
2017-04-19T04:51:58.017Z,72.06
2017-04-19T04:52:29.402Z,72.19
2017-04-19T04:52:51.092Z,72.28
2017-04-19T04:53:12.836Z,71.87
2017-04-19T04:53:34.540Z,71.95
2017-04-19T04:53:56.305Z,72.12
2017-04-19T04:54:27.580Z,72.49
2017-04-19T04:54:49.287Z,72.84
2017-04-19T04:55:11.047Z,73.18
2017-04-19T04:56:54.997Z,72.92
2017-04-19T04:57:16.723Z,72.44
2017-04-19T04:57:38.428Z,72.41
2017-04-19T04:58:09.678Z,71.93
2017-04-19T04:58:31.371Z,71.99
2017-04-19T04:59:02.643Z,72.08
2017-04-19T04:59:24.359Z,72.14
2017-04-19T04:59:46.078Z,71.86
2017-04-19T05:00:17.360Z,71.94
2017-04-19T05:00:39.092Z,71.70
2017-04-19T05:01:00.814Z,71.65
2017-04-19T05:01:32.117Z,71.56
2017-04-19T05:01:53.863Z,71.52
2017-04-19T05:03:01.277Z,71.37
2017-04-19T05:03:23.082Z,71.01
2017-04-19T05:03:54.361Z,70.59
2017-04-19T05:04:16.110Z,70.65
2017-04-19T05:05:14.460Z,70.80
2017-04-19T05:05:45.729Z,71.33
2017-04-19T05:06:07.469Z,71.53
2017-04-19T05:06:33.950Z,71.69
2017-04-19T05:06:55.681Z,71.43
2017-04-19T05:07:17.384Z,71.53
2017-04-19T05:07:39.083Z,71.22
2017-04-19T05:08:00.808Z,71.15
2017-04-19T05:08:27.287Z,70.97
2017-04-19T05:08:48.986Z,70.48
2017-04-19T05:09:10.675Z,70.41
2017-04-19T05:09:37.156Z,70.68
2017-04-19T05:09:58.863Z,70.46
2017-04-19T05:10:20.574Z,70.54
2017-04-19T05:10:42.277Z,70.75
2017-04-19T05:11:03.986Z,70.52
2017-04-19T05:11:30.480Z,70.50
2017-04-19T05:11:52.192Z,70.66
2017-04-19T05:12:13.902Z,70.91
2017-04-19T05:12:40.381Z,71.17
2017-04-19T05:13:02.133Z,71.47
2017-04-19T05:13:23.834Z,71.45
2017-04-19T05:13:45.548Z,71.24
2017-04-19T05:14:07.245Z,71.48
2017-04-19T05:14:33.923Z,71.10
2017-04-19T05:14:55.652Z,70.61
2017-04-19T05:15:17.361Z,70.87
2017-04-19T05:15:43.853Z,70.95
2017-04-19T05:16:08.036Z,70.60
2017-04-19T05:16:34.513Z,70.35
2017-04-19T05:16:56.211Z,70.35
2017-04-19T05:17:22.697Z,69.93
2017-04-19T05:17:44.418Z,70.03
2017-04-19T05:18:15.673Z,69.98
2017-04-19T05:18:37.394Z,70.07
2017-04-19T05:18:59.103Z,70.16
2017-04-19T05:19:20.826Z,70.33
2017-04-19T05:19:42.669Z,70.13
2017-04-19T05:20:04.406Z,70.72
2017-04-19T05:20:26.111Z,70.83
2017-04-19T05:20:47.827Z,70.70
2017-04-19T05:21:09.546Z,70.49
2017-04-19T05:21:36.027Z,70.08
2017-04-19T05:21:57.719Z,70.00
2017-04-19T05:22:56.233Z,70.32
2017-04-19T05:23:27.489Z,70.18
2017-04-19T05:23:49.235Z,70.29
2017-04-19T05:24:10.985Z,70.36
2017-04-19T05:24:37.504Z,70.74
2017-04-19T05:25:02.003Z,70.44
2017-04-19T05:25:23.742Z,70.38
2017-04-19T05:25:45.456Z,70.11
2017-04-19T05:26:43.995Z,69.73
2017-04-19T05:27:05.699Z,69.56
2017-04-19T05:27:27.604Z,69.66
2017-04-19T05:27:49.518Z,69.65
2017-04-19T05:28:11.217Z,69.72
2017-04-19T05:28:32.915Z,69.79
2017-04-19T05:28:54.627Z,69.98
2017-04-19T05:29:16.351Z,70.07
2017-04-19T05:29:43.860Z,70.24
2017-04-19T05:30:05.763Z,70.11
2017-04-19T05:30:30.090Z,70.46
2017-04-19T05:30:56.597Z,70.41
2017-04-19T05:31:23.340Z,70.01
2017-04-19T05:31:46.078Z,69.82
2017-04-19T05:32:07.786Z,69.89
2017-04-19T05:32:56.263Z,69.85
2017-04-19T05:33:22.738Z,69.77
2017-04-19T05:33:44.528Z,69.26
2017-04-19T05:34:06.237Z,69.68
2017-04-19T05:34:27.961Z,69.76
2017-04-19T05:34:49.659Z,69.56
2017-04-19T05:35:11.451Z,69.74
2017-04-19T05:35:33.159Z,69.66
2017-04-19T05:35:54.862Z,70.08
2017-04-19T05:36:16.557Z,70.08
2017-04-19T05:36:43.150Z,69.71
2017-04-19T05:37:04.846Z,69.45
2017-04-19T05:37:36.098Z,69.47
2017-04-19T05:37:58.122Z,69.44
2017-04-19T05:38:19.818Z,69.44
2017-04-19T05:38:41.508Z,69.06